createdAt,value
2018-02-13T00:01:57.276Z,7.03
2018-02-13T00:04:24.753Z,6.03
2018-02-13T00:06:53.044Z,5.65
2018-02-13T00:09:20.519Z,5.55
2018-02-13T00:11:48.017Z,5.75
2018-02-13T00:14:15.529Z,5.50
2018-02-13T00:16:42.999Z,5.30
2018-02-13T00:19:10.498Z,5.87
2018-02-13T00:21:37.964Z,6.00
2018-02-13T00:24:06.232Z,5.25
2018-02-13T00:29:08.437Z,5.85
2018-02-13T00:31:36.736Z,5.25
2018-02-13T00:34:04.194Z,5.22
2018-02-13T00:36:31.806Z,5.00
2018-02-13T00:39:00.038Z,5.50
2018-02-13T00:41:27.498Z,5.43
2018-02-13T00:43:54.987Z,5.28
2018-02-13T00:46:23.227Z,5.65
2018-02-13T00:48:50.688Z,5.85
2018-02-13T00:51:18.174Z,5.10
2018-02-13T00:53:45.637Z,4.57
2018-02-13T00:56:13.875Z,5.00
2018-02-13T00:58:41.366Z,5.28
2018-02-13T01:01:08.866Z,4.50
2018-02-13T01:03:36.382Z,4.25
2018-02-13T01:06:03.874Z,4.82
2018-02-13T01:08:31.349Z,5.15
2018-02-13T01:10:58.809Z,4.97
2018-02-13T01:13:26.302Z,4.45
2018-02-13T01:15:53.773Z,4.50
2018-02-13T01:18:22.007Z,4.55
2018-02-13T01:20:49.502Z,4.68
2018-02-13T01:23:17.730Z,4.05
2018-02-13T01:25:45.276Z,4.50
2018-02-13T01:28:12.755Z,4.45
2018-02-13T01:30:40.292Z,4.75
2018-02-13T01:33:07.748Z,4.80
2018-02-13T01:35:35.271Z,4.00
2018-02-13T01:38:02.710Z,4.55
2018-02-13T01:40:30.173Z,4.50
2018-02-13T01:42:58.442Z,4.60
2018-02-13T01:45:25.921Z,4.62
2018-02-13T01:47:54.169Z,4.72
2018-02-13T01:50:25.469Z,4.50
2018-02-13T01:52:52.925Z,4.65
2018-02-13T01:55:20.390Z,4.57
2018-02-13T01:57:47.870Z,4.32
2018-02-13T02:00:15.342Z,5.25
2018-02-13T02:02:42.809Z,4.57
2018-02-13T02:05:11.110Z,4.68
2018-02-13T02:07:38.722Z,5.20
2018-02-13T02:10:06.187Z,4.40
2018-02-13T02:12:33.667Z,4.28
2018-02-13T02:15:01.895Z,4.60
2018-02-13T02:17:29.480Z,4.57
2018-02-13T02:19:56.950Z,4.05
2018-02-13T02:22:25.182Z,4.70
2018-02-13T02:24:52.651Z,4.30
2018-02-13T02:27:23.821Z,4.18
2018-02-13T02:29:52.204Z,4.37
2018-02-13T02:32:19.667Z,4.20
2018-02-13T02:34:47.898Z,4.78
2018-02-13T02:37:15.433Z,3.70
2018-02-13T02:39:42.994Z,4.15
2018-02-13T02:42:10.474Z,4.32
2018-02-13T02:44:37.941Z,3.55
2018-02-13T02:47:05.433Z,3.70
2018-02-13T02:49:33.689Z,3.33
2018-02-13T02:52:01.157Z,3.33
2018-02-13T02:54:29.397Z,3.33
2018-02-13T02:56:56.846Z,3.50
2018-02-13T02:59:24.334Z,2.80
2018-02-13T03:01:51.807Z,3.40
2018-02-13T03:04:20.032Z,3.55
2018-02-13T03:06:47.523Z,3.50
2018-02-13T03:09:15.709Z,4.18
2018-02-13T03:11:43.944Z,2.92
2018-02-13T03:14:11.527Z,3.60
2018-02-13T03:16:38.982Z,3.10
2018-02-13T03:19:06.448Z,3.40
2018-02-13T03:21:34.696Z,3.67
2018-02-13T03:24:02.162Z,3.75
2018-02-13T03:26:29.640Z,3.37
2018-02-13T03:28:57.909Z,3.70
2018-02-13T03:31:26.130Z,3.67
2018-02-13T03:33:53.597Z,2.70
2018-02-13T03:36:21.112Z,3.25
2018-02-13T03:38:49.415Z,3.25
2018-02-13T03:41:16.879Z,3.90
2018-02-13T03:43:44.350Z,3.33
2018-02-13T03:46:11.805Z,3.47
2018-02-13T03:48:39.266Z,3.33
2018-02-13T03:51:06.745Z,3.60
2018-02-13T03:53:34.413Z,3.65
2018-02-13T03:56:01.962Z,3.50
2018-02-13T03:58:29.498Z,3.50
2018-02-13T04:00:56.954Z,3.35
2018-02-13T04:03:24.411Z,3.90
2018-02-13T04:05:51.986Z,3.65
2018-02-13T04:08:19.453Z,3.30
2018-02-13T04:10:46.905Z,3.40
2018-02-13T04:13:14.457Z,3.65
2018-02-13T04:15:42.685Z,4.00
2018-02-13T04:18:10.155Z,3.58
2018-02-13T04:20:37.745Z,4.10
2018-02-13T04:23:05.202Z,4.03
2018-02-13T04:25:32.662Z,3.70
2018-02-13T04:28:00.166Z,3.72
2018-02-13T04:30:27.617Z,3.20
2018-02-13T04:32:55.081Z,4.20
2018-02-13T04:35:22.595Z,3.50
2018-02-13T04:37:50.058Z,4.53
2018-02-13T04:40:17.614Z,3.28
2018-02-13T04:42:45.079Z,4.15
2018-02-13T04:45:12.537Z,4.43
2018-02-13T04:47:40.793Z,4.53
2018-02-13T04:50:08.304Z,3.92
2018-02-13T04:52:35.867Z,3.83
2018-02-13T04:55:03.345Z,4.90
2018-02-13T04:57:30.814Z,4.43
2018-02-13T04:59:58.265Z,4.25
2018-02-13T05:02:25.741Z,3.72
2018-02-13T05:04:53.203Z,4.07
2018-02-13T05:07:20.663Z,3.87
2018-02-13T05:09:48.921Z,4.20
2018-02-13T05:12:16.381Z,3.72
2018-02-13T05:14:43.858Z,4.18
2018-02-13T05:17:12.090Z,3.40
2018-02-13T05:19:39.599Z,3.75
2018-02-13T05:22:07.042Z,3.75
2018-02-13T05:24:35.275Z,4.25
2018-02-13T05:27:02.737Z,3.78
2018-02-13T05:29:30.754Z,3.83
2018-02-13T05:31:59.058Z,4.10
2018-02-13T05:34:26.514Z,3.53
2018-02-13T05:36:54.008Z,3.83
2018-02-13T05:39:21.469Z,3.30
2018-02-13T05:41:48.925Z,4.00
2018-02-13T05:44:16.441Z,3.42
2018-02-13T05:46:43.902Z,3.78
2018-02-13T05:49:11.354Z,3.40
2018-02-13T05:51:38.838Z,3.42
2018-02-13T05:54:06.306Z,3.40
2018-02-13T05:56:33.779Z,3.85
2018-02-13T05:59:02.025Z,4.30
2018-02-13T06:01:29.490Z,4.15
2018-02-13T06:03:56.962Z,3.40
2018-02-13T06:06:24.442Z,3.53
2018-02-13T06:08:52.670Z,3.80
2018-02-13T06:11:20.154Z,4.40
2018-02-13T06:13:47.638Z,4.12
2018-02-13T06:16:15.112Z,4.35
2018-02-13T06:18:42.574Z,3.35
2018-02-13T06:21:10.059Z,3.42
2018-02-13T06:23:37.520Z,3.58
2018-02-13T06:26:04.980Z,3.90
2018-02-13T06:28:32.476Z,3.75
2018-02-13T06:30:59.954Z,3.80
2018-02-13T06:33:27.413Z,3.90
2018-02-13T06:35:54.889Z,3.50
2018-02-13T06:38:22.353Z,3.97
2018-02-13T06:40:49.818Z,4.50
2018-02-13T06:43:17.398Z,3.50
2018-02-13T06:45:45.639Z,3.87
2018-02-13T06:48:13.093Z,3.22
2018-02-13T06:50:40.574Z,3.40
2018-02-13T06:53:08.026Z,3.55
2018-02-13T06:55:35.487Z,3.97
2018-02-13T06:58:02.975Z,4.18
2018-02-13T07:00:30.454Z,4.57
2018-02-13T07:02:57.911Z,4.28
2018-02-13T07:05:25.450Z,2.80
2018-02-13T07:07:52.869Z,3.75
2018-02-13T07:10:20.338Z,4.45
2018-02-13T07:12:48.590Z,4.05
2018-02-13T07:15:16.054Z,3.60
2018-02-13T07:17:43.506Z,3.90
2018-02-13T07:20:10.994Z,3.72
2018-02-13T07:22:38.478Z,3.78
2018-02-13T07:25:05.933Z,3.50
2018-02-13T07:27:33.408Z,3.40
2018-02-13T07:30:00.865Z,3.17
2018-02-13T07:32:28.346Z,3.47
2018-02-13T07:34:55.801Z,4.68
2018-02-13T07:37:23.258Z,3.03
2018-02-13T07:39:50.745Z,3.58
2018-02-13T07:42:18.969Z,3.22
2018-02-13T07:44:46.441Z,3.20
2018-02-13T07:47:14.706Z,3.50
2018-02-13T07:49:42.167Z,3.92
2018-02-13T07:52:09.644Z,3.00
2018-02-13T07:54:37.902Z,2.73
2018-02-13T07:57:05.372Z,3.10
2018-02-13T07:59:32.830Z,3.20
2018-02-13T08:02:00.301Z,3.90
2018-02-13T08:04:28.523Z,2.50
2018-02-13T08:06:56.006Z,3.10
2018-02-13T08:09:23.466Z,3.23
2018-02-13T08:11:52.454Z,3.60
2018-02-13T08:14:21.420Z,3.50
2018-02-13T08:16:48.893Z,2.53
2018-02-13T08:19:16.390Z,3.00
2018-02-13T08:21:44.618Z,3.53
2018-02-13T08:24:12.083Z,3.40
2018-02-13T08:26:39.558Z,3.00
2018-02-13T08:29:07.027Z,4.23
2018-02-13T08:31:35.264Z,4.03
2018-02-13T08:34:02.758Z,4.27
2018-02-13T08:36:30.216Z,3.20
2018-02-13T08:38:58.453Z,3.87
2018-02-13T08:41:25.926Z,4.07
2018-02-13T08:43:53.381Z,3.57
2018-02-13T08:46:21.043Z,4.73
2018-02-13T08:48:48.512Z,3.80
2018-02-13T08:51:15.969Z,3.80
2018-02-13T08:53:44.338Z,3.80
2018-02-13T08:56:11.811Z,4.27
2018-02-13T08:58:40.038Z,3.83
2018-02-13T09:01:07.524Z,3.20
2018-02-13T09:03:34.973Z,3.50
2018-02-13T09:06:02.438Z,4.27
2018-02-13T09:08:30.097Z,4.60
2018-02-13T09:10:57.559Z,5.00
2018-02-13T09:13:25.013Z,5.20
2018-02-13T09:15:52.678Z,4.23
2018-02-13T09:18:20.146Z,5.90
2018-02-13T09:20:48.382Z,3.53
2018-02-13T09:23:15.870Z,5.10
2018-02-13T09:25:44.099Z,4.60
2018-02-13T09:28:11.560Z,4.70
2018-02-13T09:30:39.053Z,5.33
2018-02-13T09:33:06.556Z,4.53
2018-02-13T09:35:33.994Z,5.47
2018-02-13T09:38:01.482Z,4.50
2018-02-13T09:40:28.930Z,5.60
2018-02-13T09:42:56.390Z,4.93
2018-02-13T09:45:23.854Z,4.90
2018-02-13T09:47:51.313Z,5.37
2018-02-13T09:50:18.861Z,4.67
2018-02-13T09:52:46.337Z,4.30
2018-02-13T09:55:13.806Z,5.20
2018-02-13T09:57:41.279Z,5.60
2018-02-13T10:00:08.762Z,4.80
2018-02-13T10:02:36.237Z,5.63
2018-02-13T10:05:03.696Z,4.07
2018-02-13T10:07:31.176Z,5.13
2018-02-13T10:09:58.638Z,4.97
2018-02-13T10:12:26.122Z,4.77
2018-02-13T10:14:54.361Z,5.40
2018-02-13T10:17:21.825Z,3.20
2018-02-13T10:19:50.133Z,4.83
2018-02-13T10:22:18.349Z,6.17
2018-02-13T10:24:45.824Z,4.67
2018-02-13T10:27:13.289Z,4.30
2018-02-13T10:29:40.762Z,5.07
2018-02-13T10:32:08.274Z,4.70
2018-02-13T10:34:36.751Z,4.40
2018-02-13T10:37:04.255Z,3.47
2018-02-13T10:39:31.849Z,5.40
2018-02-13T10:41:59.379Z,4.07
2018-02-13T10:44:27.623Z,4.87
2018-02-13T10:46:55.082Z,4.63
2018-02-13T10:49:22.546Z,5.13
2018-02-13T10:51:50.022Z,5.17
2018-02-13T10:54:18.243Z,4.60
2018-02-13T10:56:45.723Z,4.13
2018-02-13T10:59:13.173Z,5.10
2018-02-13T11:01:40.632Z,5.97
2018-02-13T11:04:08.242Z,5.30
2018-02-13T11:06:36.468Z,4.87
2018-02-13T11:09:03.925Z,5.40
2018-02-13T11:11:31.402Z,4.40
2018-02-13T11:13:58.893Z,5.27
2018-02-13T11:16:27.122Z,4.07
2018-02-13T11:18:54.603Z,3.60
2018-02-13T11:21:22.829Z,4.03
2018-02-13T11:23:50.310Z,4.60
2018-02-13T11:26:17.828Z,3.50
2018-02-13T11:28:46.098Z,3.43
2018-02-13T11:31:13.545Z,3.20
2018-02-13T11:33:41.791Z,2.87
2018-02-13T11:36:09.251Z,3.87
2018-02-13T11:38:37.489Z,3.60
2018-02-13T11:41:04.953Z,2.93
2018-02-13T11:43:32.410Z,3.10
2018-02-13T11:45:59.880Z,3.87
2018-02-13T11:48:27.365Z,2.60
2018-02-13T11:50:55.600Z,3.70
2018-02-13T11:53:23.055Z,3.27
2018-02-13T11:55:50.533Z,3.20
2018-02-13T11:58:17.983Z,3.90
2018-02-13T12:00:45.434Z,3.17
2018-02-13T12:03:12.903Z,2.90
2018-02-13T12:05:40.353Z,2.67
2018-02-13T12:08:07.825Z,2.97
2018-02-13T12:10:35.292Z,3.03
2018-02-13T12:13:03.510Z,3.10
2018-02-13T12:15:30.977Z,2.90
2018-02-13T12:17:58.454Z,3.20
2018-02-13T12:20:25.914Z,2.00
2018-02-13T12:22:53.374Z,2.90
2018-02-13T12:25:32.669Z,3.40
2018-02-13T12:28:00.137Z,3.00
2018-02-13T12:30:27.596Z,2.70
2018-02-13T12:32:55.050Z,2.40
2018-02-13T12:35:22.506Z,2.47
2018-02-13T12:37:49.978Z,3.20
2018-02-13T12:40:17.457Z,3.70
2018-02-13T12:42:45.670Z,2.27
2018-02-13T12:45:13.149Z,2.30
2018-02-13T12:47:40.615Z,2.23
2018-02-13T12:50:08.078Z,2.27
2018-02-13T12:52:35.563Z,2.27
2018-02-13T12:55:03.778Z,2.70
2018-02-13T12:57:31.225Z,1.97
2018-02-13T12:59:58.723Z,2.20
2018-02-13T13:02:26.183Z,1.90
2018-02-13T13:04:53.649Z,2.60
2018-02-13T13:07:21.137Z,3.13
2018-02-13T13:09:49.342Z,3.07
2018-02-13T13:12:16.813Z,2.90
2018-02-13T13:14:44.299Z,1.90
2018-02-13T13:17:11.754Z,2.50
2018-02-13T13:19:39.214Z,2.60
2018-02-13T13:22:07.494Z,3.37
2018-02-13T13:24:35.805Z,1.90
2018-02-13T13:27:03.364Z,2.30
2018-02-13T13:29:30.845Z,2.70
2018-02-13T13:31:58.310Z,2.00
2018-02-13T13:34:25.770Z,2.37
2018-02-13T13:36:53.249Z,2.93
2018-02-13T13:39:21.473Z,2.33
2018-02-13T13:41:48.946Z,2.97
2018-02-13T13:44:16.422Z,2.23
2018-02-13T13:46:43.903Z,2.00
2018-02-13T13:49:12.134Z,2.70
2018-02-13T13:51:39.823Z,1.60
2018-02-13T13:54:08.045Z,2.43
2018-02-13T13:56:35.837Z,2.20
2018-02-13T13:59:03.321Z,2.20
2018-02-13T14:01:30.789Z,1.80
2018-02-13T14:03:59.018Z,1.80
2018-02-13T14:06:26.495Z,2.40
2018-02-13T14:08:53.962Z,1.83
2018-02-13T14:11:22.186Z,2.67
2018-02-13T14:13:49.658Z,2.50
2018-02-13T14:16:18.081Z,1.90
2018-02-13T14:18:46.307Z,2.60
2018-02-13T14:21:13.805Z,2.70
2018-02-13T14:23:41.253Z,3.07
2018-02-13T14:26:08.717Z,1.80
2018-02-13T14:28:36.221Z,2.33
2018-02-13T14:31:03.678Z,1.83
2018-02-13T14:33:31.135Z,1.60
2018-02-13T14:35:58.734Z,1.60
2018-02-13T14:38:26.207Z,1.87
2018-02-13T14:40:54.426Z,2.60
2018-02-13T14:43:21.903Z,1.87
2018-02-13T14:45:49.364Z,2.70
2018-02-13T14:48:16.829Z,2.20
2018-02-13T14:50:44.302Z,2.23
2018-02-13T14:53:11.769Z,2.47
2018-02-13T14:55:39.242Z,2.50
2018-02-13T14:58:07.590Z,2.50
2018-02-13T15:00:35.048Z,1.60
2018-02-13T15:03:02.510Z,1.70
2018-02-13T15:05:30.747Z,1.80
2018-02-13T15:07:58.221Z,2.30
2018-02-13T15:10:25.671Z,2.23
2018-02-13T15:12:53.147Z,1.67
2018-02-13T15:15:23.226Z,2.40
2018-02-13T15:17:55.619Z,2.47
2018-02-13T15:20:23.082Z,2.43
2018-02-13T15:22:50.544Z,2.00
2018-02-13T15:25:18.206Z,2.27
2018-02-13T15:27:45.674Z,2.50
2018-02-13T15:30:13.898Z,2.50
2018-02-13T15:32:41.413Z,2.50
2018-02-13T15:35:08.862Z,2.43
2018-02-13T15:37:37.110Z,2.40
2018-02-13T15:40:04.558Z,2.30
2018-02-13T15:42:32.021Z,2.60
2018-02-13T15:44:59.551Z,3.07
2018-02-13T15:47:41.890Z,2.37
2018-02-13T15:50:09.366Z,2.90
2018-02-13T15:52:36.826Z,2.13
2018-02-13T15:55:05.055Z,3.03
2018-02-13T15:57:32.536Z,2.83
2018-02-13T16:00:00.009Z,2.50
2018-02-13T16:02:27.468Z,2.60
2018-02-13T16:04:55.715Z,2.80
2018-02-13T16:07:23.177Z,2.97
2018-02-13T16:09:50.634Z,2.60
2018-02-13T16:12:18.109Z,2.33
2018-02-13T16:14:45.570Z,2.53
2018-02-13T16:17:13.843Z,2.90
2018-02-13T16:19:42.098Z,2.70
2018-02-13T16:22:09.571Z,3.00
2018-02-13T16:24:37.026Z,2.63
2018-02-13T16:27:04.728Z,2.77
2018-02-13T16:29:32.926Z,2.53
2018-02-13T16:32:00.385Z,2.40
2018-02-13T16:34:28.641Z,2.80
2018-02-13T16:36:56.118Z,3.93
2018-02-13T16:39:23.569Z,2.83
2018-02-13T16:41:51.050Z,3.37
2018-02-13T16:44:18.510Z,3.00
2018-02-13T16:46:45.967Z,2.70
2018-02-13T16:49:13.444Z,3.10
2018-02-13T16:51:41.673Z,3.20
2018-02-13T16:54:09.163Z,3.07
2018-02-13T16:56:36.614Z,3.30
2018-02-13T16:59:04.078Z,2.87
2018-02-13T17:01:32.450Z,3.20
2018-02-13T17:03:59.911Z,3.20
2018-02-13T17:06:27.357Z,2.90
2018-02-13T17:08:54.941Z,3.73
2018-02-13T17:11:23.173Z,3.20
2018-02-13T17:13:50.620Z,3.10
2018-02-13T17:16:18.102Z,3.50
2018-02-13T17:18:45.571Z,3.23
2018-02-13T17:21:13.817Z,3.43
2018-02-13T17:23:41.302Z,3.53
2018-02-13T17:26:08.761Z,3.10
2018-02-13T17:28:36.992Z,3.30
2018-02-13T17:31:04.598Z,3.60
2018-02-13T17:33:32.826Z,3.67
2018-02-13T17:36:00.291Z,3.13
2018-02-13T17:38:27.770Z,3.57
2018-02-13T17:40:55.227Z,3.80
2018-02-13T17:43:22.701Z,4.00
2018-02-13T17:45:50.963Z,3.43
2018-02-13T17:48:18.409Z,3.60
2018-02-13T17:50:45.879Z,3.10
2018-02-13T17:53:13.350Z,3.50
2018-02-13T17:55:41.590Z,3.07
2018-02-13T17:58:09.054Z,3.73
2018-02-13T18:00:36.606Z,4.03
2018-02-13T18:03:04.067Z,3.70
2018-02-13T18:05:31.737Z,3.07
2018-02-13T18:07:59.217Z,3.87
2018-02-13T18:10:27.457Z,3.40
2018-02-13T18:12:54.937Z,3.58
2018-02-13T18:15:23.187Z,3.83
2018-02-13T18:17:50.663Z,3.30
2018-02-13T18:20:18.125Z,4.27
2018-02-13T18:22:46.439Z,3.83
2018-02-13T18:25:14.123Z,4.28
2018-02-13T18:27:41.569Z,3.80
2018-02-13T18:30:09.182Z,3.77
2018-02-13T18:32:37.418Z,4.10
2018-02-13T18:35:04.938Z,3.43
2018-02-13T18:37:32.414Z,3.63
2018-02-13T18:39:59.875Z,3.40
2018-02-13T18:42:27.346Z,3.77
2018-02-13T18:44:55.415Z,4.10
2018-02-13T18:47:22.870Z,4.07
2018-02-13T18:49:50.339Z,3.43
2018-02-13T18:54:45.329Z,4.00
2018-02-13T18:57:12.787Z,3.47
2018-02-13T18:59:40.424Z,3.90
2018-02-13T19:02:07.890Z,3.63
2018-02-13T19:04:35.375Z,3.72
2018-02-13T19:07:02.863Z,4.13
2018-02-13T19:09:31.109Z,3.60
2018-02-13T19:11:58.569Z,3.57
2018-02-13T19:14:26.300Z,4.00
2018-02-13T19:19:21.258Z,3.57
2018-02-13T19:21:48.749Z,4.33
2018-02-13T19:24:16.221Z,4.03
2018-02-13T19:26:43.689Z,3.37
2018-02-13T19:29:11.175Z,4.10
2018-02-13T19:31:38.636Z,3.83
2018-02-13T19:34:06.113Z,4.10
2018-02-13T19:36:34.398Z,3.77
2018-02-13T19:39:02.619Z,3.00
2018-02-13T19:41:30.082Z,2.50
2018-02-13T19:43:57.614Z,2.78
2018-02-13T19:46:25.830Z,3.43
2018-02-13T19:48:54.018Z,3.37
2018-02-13T19:51:21.665Z,3.03
2018-02-13T19:53:49.407Z,2.60
2018-02-13T19:56:16.863Z,3.03
2018-02-13T19:58:44.358Z,3.30
2018-02-13T20:01:12.605Z,3.10
2018-02-13T20:03:40.116Z,3.97
2018-02-13T20:06:07.592Z,3.00
2018-02-13T20:08:35.113Z,3.28
2018-02-13T20:11:03.373Z,2.30
2018-02-13T20:13:30.834Z,2.93
2018-02-13T20:15:59.076Z,3.13
2018-02-13T20:18:26.561Z,3.00
2018-02-13T20:20:54.036Z,3.20
2018-02-13T20:23:22.274Z,3.40
2018-02-13T20:25:49.786Z,3.20
2018-02-13T20:28:17.247Z,3.50
2018-02-13T20:30:44.742Z,2.62
2018-02-13T20:33:12.271Z,3.60
2018-02-13T20:35:39.745Z,3.55
2018-02-13T20:38:07.214Z,3.53
2018-02-13T20:40:34.912Z,3.25
2018-02-13T20:43:03.140Z,3.53
2018-02-13T20:45:30.628Z,3.60
2018-02-13T20:47:58.115Z,2.80
2018-02-13T20:50:26.317Z,3.87
2018-02-13T20:52:53.795Z,3.40
2018-02-13T20:55:22.043Z,3.85
2018-02-13T20:57:49.508Z,3.75
2018-02-13T21:00:16.999Z,3.53
2018-02-13T21:02:44.686Z,3.85
2018-02-13T21:05:12.933Z,4.00
2018-02-13T21:07:41.268Z,3.83
2018-02-13T21:10:08.759Z,3.53
2018-02-13T21:12:36.211Z,3.05
2018-02-13T21:15:03.666Z,3.50
2018-02-13T21:17:31.151Z,3.40
2018-02-13T21:19:59.399Z,3.78
2018-02-13T21:22:27.885Z,3.03
2018-02-13T21:24:55.341Z,3.55
2018-02-13T21:27:22.815Z,3.55
2018-02-13T21:29:51.066Z,4.10
2018-02-13T21:32:18.533Z,4.37
2018-02-13T21:34:46.021Z,4.03
2018-02-13T21:37:14.254Z,3.58
2018-02-13T21:39:43.238Z,3.85
2018-02-13T21:42:10.699Z,3.83
2018-02-13T21:44:38.189Z,3.80
2018-02-13T21:47:06.431Z,3.53
2018-02-13T21:49:33.911Z,3.75
2018-02-13T21:52:01.400Z,3.50
2018-02-13T21:54:28.931Z,4.07
2018-02-13T21:56:57.178Z,3.60
2018-02-13T21:59:24.662Z,3.25
2018-02-13T22:01:52.121Z,3.87
2018-02-13T22:04:19.798Z,4.75
2018-02-13T22:06:48.055Z,3.97
2018-02-13T22:09:16.286Z,3.92
2018-02-13T22:11:43.803Z,3.40
2018-02-13T22:14:12.107Z,3.62
2018-02-13T22:16:39.566Z,3.40
2018-02-13T22:19:07.046Z,4.00
2018-02-13T22:21:34.515Z,4.35
2018-02-13T22:24:02.212Z,3.78
2018-02-13T22:26:30.471Z,3.45
2018-02-13T22:28:57.934Z,3.72
2018-02-13T22:31:26.179Z,3.72
2018-02-13T22:33:53.702Z,3.72
2018-02-13T22:36:21.172Z,3.70
2018-02-13T22:38:48.690Z,3.95
2018-02-13T22:41:16.917Z,3.72
2018-02-13T22:43:44.382Z,3.55
2018-02-13T22:46:11.846Z,3.28
2018-02-13T22:48:39.326Z,3.80
2018-02-13T22:51:07.546Z,4.43
2018-02-13T22:53:35.014Z,4.30
2018-02-13T22:56:02.515Z,3.87
2018-02-13T22:58:30.741Z,4.47
2018-02-13T23:00:58.219Z,3.75
2018-02-13T23:03:25.706Z,4.03
2018-02-13T23:05:53.930Z,3.47
2018-02-13T23:08:21.491Z,3.60
2018-02-13T23:10:48.951Z,3.95
2018-02-13T23:13:16.407Z,4.05
2018-02-13T23:15:43.886Z,3.12
2018-02-13T23:18:11.363Z,3.87
2018-02-13T23:20:39.587Z,3.65
2018-02-13T23:23:07.059Z,3.60
2018-02-13T23:25:34.523Z,4.10
2018-02-13T23:28:01.990Z,4.18
2018-02-13T23:30:29.486Z,3.75
2018-02-13T23:32:56.961Z,3.70
2018-02-13T23:35:24.419Z,3.50
2018-02-13T23:37:52.029Z,4.00
2018-02-13T23:40:20.269Z,4.47
2018-02-13T23:42:47.726Z,4.80
2018-02-13T23:45:15.202Z,3.40
2018-02-13T23:47:42.661Z,4.05
2018-02-13T23:50:10.886Z,4.18
2018-02-13T23:52:38.445Z,4.30
2018-02-13T23:55:05.900Z,4.00
2018-02-13T23:57:33.370Z,4.00
